createdAt,value
2022-11-07T00:04:31.831Z,100.00
2022-11-07T00:07:01.462Z,100.00
2022-11-07T00:09:31.031Z,100.00
2022-11-07T00:12:00.471Z,100.00
2022-11-07T00:14:54.062Z,100.00
2022-11-07T00:17:23.797Z,100.00
2022-11-07T00:19:54.243Z,100.00
2022-11-07T00:22:23.659Z,100.00
2022-11-07T00:29:27.117Z,100.00
2022-11-07T00:32:22.415Z,100.00
2022-11-07T00:34:51.707Z,100.00
2022-11-07T00:58:14.375Z,100.00
2022-11-07T01:15:56.518Z,100.00
2022-11-07T01:23:01.545Z,100.00
2022-11-07T01:35:27.016Z,100.00
2022-11-07T01:37:56.245Z,100.00
2022-11-07T01:40:26.151Z,100.00
2022-11-07T01:42:54.744Z,100.00
2022-11-07T01:45:24.790Z,100.00
2022-11-07T01:47:53.907Z,100.00
2022-11-07T01:50:24.815Z,100.00
2022-11-07T01:52:54.622Z,100.00
2022-11-07T01:55:26.673Z,100.00
2022-11-07T01:58:02.614Z,100.00
2022-11-07T02:00:33.507Z,100.00
2022-11-07T02:03:04.708Z,100.00
2022-11-07T02:05:36.999Z,100.00
2022-11-07T02:08:08.393Z,100.00
2022-11-07T02:10:40.248Z,100.00
2022-11-07T02:13:21.980Z,100.00
2022-11-07T02:15:51.117Z,100.00
2022-11-07T02:18:20.572Z,100.00
2022-11-07T02:20:50.208Z,100.00
2022-11-07T02:23:26.680Z,100.00
2022-11-07T02:25:57.614Z,100.00
2022-11-07T02:28:29.153Z,100.00
2022-11-07T02:30:58.257Z,100.00
2022-11-07T02:33:27.672Z,100.00
2022-11-07T02:36:23.673Z,100.00
2022-11-07T02:38:57.644Z,100.00
2022-11-07T02:41:31.907Z,100.00
2022-11-07T02:44:30.399Z,100.00
2022-11-07T02:47:00.283Z,100.00
2022-11-07T02:49:30.075Z,100.00
2022-11-07T02:51:59.507Z,100.00
2022-11-07T02:54:28.666Z,100.00
2022-11-07T02:56:59.321Z,100.00
2022-11-07T02:59:30.698Z,100.00
2022-11-07T03:01:59.785Z,100.00
2022-11-07T03:04:49.242Z,100.00
2022-11-07T03:12:19.151Z,100.00
2022-11-07T03:14:48.078Z,100.00
2022-11-07T03:17:17.225Z,100.00
2022-11-07T03:20:57.807Z,100.00
2022-11-07T03:23:27.026Z,100.00
2022-11-07T03:25:56.134Z,100.00
2022-11-07T03:28:27.077Z,100.00
2022-11-07T03:31:47.318Z,100.00
2022-11-07T03:34:16.487Z,100.00
2022-11-07T03:36:51.396Z,100.00
2022-11-07T03:39:25.624Z,100.00
2022-11-07T03:42:59.455Z,100.00
2022-11-07T03:46:34.791Z,100.00
2022-11-07T03:49:05.392Z,100.00
2022-11-07T03:51:40.269Z,100.00
2022-11-07T03:54:13.923Z,100.00
2022-11-07T03:56:43.054Z,100.00
2022-11-07T03:59:12.613Z,100.00
2022-11-07T04:01:42.239Z,100.00
2022-11-07T04:04:13.205Z,100.00
2022-11-07T04:07:12.397Z,100.00
2022-11-07T04:09:41.560Z,100.00
2022-11-07T04:19:44.271Z,100.00
2022-11-07T04:22:13.848Z,100.00
2022-11-07T04:24:46.116Z,100.00
2022-11-07T04:28:05.109Z,100.00
2022-11-07T04:30:34.253Z,100.00
2022-11-07T04:33:03.900Z,100.00
2022-11-07T04:35:35.199Z,100.00
2022-11-07T04:38:04.418Z,100.00
2022-11-07T04:40:33.792Z,100.00
2022-11-07T04:47:40.764Z,100.00
2022-11-07T04:50:12.897Z,100.00
2022-11-07T04:52:44.204Z,100.00
2022-11-07T04:55:21.172Z,100.00
2022-11-07T04:57:50.637Z,100.00
2022-11-07T05:00:34.635Z,100.00
2022-11-07T05:07:31.386Z,100.00
2022-11-07T05:14:43.732Z,100.00
2022-11-07T05:17:15.470Z,100.00
2022-11-07T05:19:44.614Z,100.00
2022-11-07T05:25:29.165Z,100.00
2022-11-07T05:27:58.374Z,100.00
2022-11-07T05:30:26.624Z,100.00
2022-11-07T05:32:54.994Z,100.00
2022-11-07T05:35:23.359Z,100.00
2022-11-07T05:43:07.779Z,100.00
2022-11-07T05:45:38.842Z,100.00
2022-11-07T05:54:08.703Z,100.00
2022-11-07T06:06:28.532Z,100.00
2022-11-07T06:08:56.878Z,100.00
2022-11-07T06:11:25.518Z,100.00
2022-11-07T06:23:26.958Z,100.00
2022-11-07T06:30:24.119Z,100.00
2022-11-07T06:32:52.440Z,100.00
2022-11-07T06:45:55.025Z,100.00
2022-11-07T07:06:46.377Z,100.00
2022-11-07T07:09:14.855Z,100.00
2022-11-07T07:11:45.615Z,100.00
2022-11-07T07:15:32.711Z,100.00
2022-11-07T07:18:10.744Z,100.00
2022-11-07T07:20:39.742Z,100.00
2022-11-07T07:27:45.887Z,100.00
2022-11-07T07:44:02.337Z,100.00
2022-11-07T07:46:34.551Z,100.00
2022-11-07T07:58:30.572Z,100.00
2022-11-07T08:06:00.202Z,100.00
2022-11-07T08:13:57.220Z,100.00
2022-11-07T08:18:31.346Z,100.00
2022-11-07T08:21:52.076Z,100.00
2022-11-07T08:38:31.212Z,100.00
2022-11-07T08:59:10.873Z,100.00
2022-11-07T09:01:56.136Z,100.00
2022-11-07T09:05:42.578Z,100.00
2022-11-07T09:13:32.144Z,100.00
2022-11-07T09:21:45.715Z,100.00
2022-11-07T09:24:16.368Z,100.00
2022-11-07T09:26:46.885Z,100.00
2022-11-07T09:29:44.534Z,100.00
2022-11-07T09:32:42.781Z,100.00
2022-11-07T09:35:56.842Z,100.00
2022-11-07T09:52:23.761Z,100.00
2022-11-07T09:54:56.928Z,100.00
2022-11-07T09:57:33.584Z,100.00
2022-11-07T10:00:11.447Z,100.00
2022-11-07T10:06:26.509Z,96.31
2022-11-07T10:22:24.870Z,100.00
2022-11-07T10:29:26.650Z,89.33
2022-11-07T10:32:18.353Z,89.63
2022-11-07T11:01:58.218Z,70.92
2022-11-07T11:06:25.909Z,70.92
2022-11-07T11:08:54.423Z,65.20
2022-11-07T11:11:32.972Z,66.77
2022-11-07T11:14:06.235Z,65.02
2022-11-07T11:16:37.493Z,63.25
2022-11-07T11:19:08.074Z,61.93
2022-11-07T11:21:40.628Z,57.98
2022-11-07T11:24:23.546Z,57.60
2022-11-07T11:26:52.773Z,56.50
2022-11-07T11:29:28.243Z,55.45
2022-11-07T11:31:57.167Z,53.73
2022-11-07T11:34:30.505Z,53.66
2022-11-07T11:37:05.093Z,56.06
2022-11-07T11:39:40.982Z,55.17
2022-11-07T11:42:15.722Z,54.53
2022-11-07T11:44:45.436Z,52.62
2022-11-07T11:47:17.606Z,52.15
2022-11-07T11:49:50.093Z,51.34
2022-11-07T11:52:19.365Z,51.67
2022-11-07T11:54:48.273Z,51.64
2022-11-07T11:57:19.701Z,48.63
2022-11-07T12:00:12.429Z,50.33
2022-11-07T12:02:50.204Z,48.39
2022-11-07T12:05:26.897Z,48.06
2022-11-07T12:08:02.221Z,46.03
2022-11-07T12:10:33.488Z,47.49
2022-11-07T12:13:10.821Z,48.45
2022-11-07T12:15:49.520Z,47.38
2022-11-07T12:18:23.854Z,47.53
2022-11-07T12:21:04.074Z,47.14
2022-11-07T12:23:52.441Z,46.23
2022-11-07T12:26:25.908Z,45.64
2022-11-07T12:29:02.090Z,45.67
2022-11-07T12:31:44.455Z,43.62
2022-11-07T12:34:25.281Z,43.98
2022-11-07T12:37:07.356Z,44.65
2022-11-07T12:39:48.150Z,45.15
2022-11-07T12:42:25.424Z,43.79
2022-11-07T12:45:02.997Z,43.56
2022-11-07T12:47:42.652Z,42.39
2022-11-07T12:50:21.125Z,42.22
2022-11-07T12:53:02.694Z,42.22
2022-11-07T12:55:37.770Z,41.97
2022-11-07T12:58:30.066Z,42.42
2022-11-07T13:01:30.424Z,43.28
2022-11-07T13:04:09.107Z,44.63
2022-11-07T13:06:39.764Z,45.27
2022-11-07T13:09:17.086Z,45.82
2022-11-07T13:11:50.906Z,46.67
2022-11-07T13:14:28.781Z,47.89
2022-11-07T13:17:15.162Z,48.13
2022-11-07T13:19:45.610Z,49.09
2022-11-07T13:22:25.493Z,50.67
2022-11-07T13:25:01.622Z,50.62
2022-11-07T13:27:37.640Z,52.36
2022-11-07T13:30:20.566Z,54.29
2022-11-07T13:32:50.331Z,55.78
2022-11-07T13:45:54.090Z,62.34
2022-11-07T13:48:32.321Z,62.37
2022-11-07T13:51:07.368Z,63.61
2022-11-07T13:53:39.055Z,66.56
2022-11-07T14:00:17.399Z,68.01
2022-11-07T14:07:49.437Z,74.41
2022-11-07T14:15:38.423Z,81.85
2022-11-07T14:18:07.535Z,85.14
2022-11-07T14:20:35.826Z,90.33
2022-11-07T14:23:32.449Z,91.88
2022-11-07T14:40:38.502Z,100.00
2022-11-07T14:43:57.367Z,100.00
2022-11-07T14:46:27.074Z,100.00
2022-11-07T14:49:09.287Z,100.00
2022-11-07T14:56:11.282Z,100.00
2022-11-07T14:58:39.632Z,100.00
2022-11-07T15:01:13.774Z,100.00
2022-11-07T15:05:40.481Z,100.00
2022-11-07T15:12:51.653Z,100.00
2022-11-07T15:15:48.360Z,100.00
2022-11-07T15:18:27.179Z,100.00
2022-11-07T15:20:59.214Z,100.00
2022-11-07T15:24:19.483Z,100.00
2022-11-07T15:31:23.964Z,100.00
2022-11-07T15:33:52.881Z,100.00
2022-11-07T15:45:49.064Z,100.00
2022-11-07T15:48:20.420Z,100.00
2022-11-07T15:50:49.924Z,100.00
2022-11-07T15:54:04.132Z,100.00
2022-11-07T16:01:03.019Z,100.00
2022-11-07T16:03:33.076Z,100.00
2022-11-07T16:06:02.561Z,100.00
2022-11-07T16:08:31.577Z,100.00
2022-11-07T16:11:02.466Z,100.00
2022-11-07T16:13:30.879Z,100.00
2022-11-07T16:16:01.478Z,100.00
2022-11-07T16:18:52.593Z,100.00
2022-11-07T16:21:23.073Z,100.00
2022-11-07T16:23:53.541Z,100.00
2022-11-07T16:26:27.870Z,100.00
2022-11-07T16:28:56.562Z,100.00
2022-11-07T16:31:25.571Z,100.00
2022-11-07T16:33:54.635Z,100.00
2022-11-07T16:36:28.919Z,100.00
2022-11-07T16:45:32.720Z,100.00
2022-11-07T16:53:24.638Z,100.00
2022-11-07T16:56:03.390Z,100.00
2022-11-07T16:58:33.729Z,100.00
2022-11-07T17:01:05.406Z,100.00
2022-11-07T17:03:34.747Z,100.00
2022-11-07T17:06:04.541Z,100.00
2022-11-07T17:08:36.582Z,100.00
2022-11-07T17:15:00.276Z,100.00
2022-11-07T17:17:29.530Z,100.00
2022-11-07T17:24:51.173Z,100.00
2022-11-07T17:37:44.568Z,100.00
2022-11-07T17:50:57.683Z,100.00
2022-11-07T18:30:16.473Z,100.00
2022-11-07T18:32:45.966Z,100.00
2022-11-07T18:35:19.162Z,100.00
2022-11-07T18:39:02.892Z,100.00
2022-11-07T18:41:33.924Z,100.00
2022-11-07T18:44:05.217Z,100.00
2022-11-07T18:47:29.175Z,100.00
2022-11-07T18:50:00.550Z,100.00
2022-11-07T18:52:31.542Z,100.00
2022-11-07T18:55:04.416Z,100.00
2022-11-07T19:02:36.598Z,100.00
2022-11-07T19:23:30.990Z,100.00
2022-11-07T19:26:27.479Z,100.00
2022-11-07T19:29:02.777Z,100.00
2022-11-07T19:36:27.069Z,100.00
2022-11-07T19:38:59.875Z,100.00
2022-11-07T19:47:42.933Z,100.00
2022-11-07T19:50:14.245Z,100.00
2022-11-07T19:52:44.963Z,100.00
2022-11-07T19:55:43.996Z,100.00
2022-11-07T20:05:24.524Z,100.00
2022-11-07T20:07:57.103Z,100.00
2022-11-07T20:11:37.572Z,100.00
2022-11-07T20:14:10.470Z,100.00
2022-11-07T20:21:57.285Z,100.00
2022-11-07T20:28:59.319Z,100.00
2022-11-07T20:31:33.241Z,100.00
2022-11-07T20:35:24.977Z,100.00
2022-11-07T20:38:48.723Z,100.00
2022-11-07T20:41:19.164Z,100.00
2022-11-07T20:45:06.168Z,100.00
2022-11-07T20:57:15.660Z,100.00
2022-11-07T21:04:56.210Z,100.00
2022-11-07T21:12:18.462Z,100.00
2022-11-07T21:15:03.608Z,100.00
2022-11-07T21:17:36.855Z,100.00
2022-11-07T21:20:08.074Z,100.00
2022-11-07T21:26:09.821Z,100.00
2022-11-07T21:28:42.957Z,100.00
2022-11-07T23:35:45.850Z,100.00
2022-11-07T23:42:41.385Z,100.00
2022-11-07T23:45:30.777Z,100.00
2022-11-07T23:57:12.139Z,100.00
